sensor_id;sensor_type;location;lat;lon;timestamp;pressure;altitude;pressure_sealevel;temperature;humidity
15670;BME280;18524;45.190;5.732;2023-05-22T00:01:58;98926.81;;;16.54;100.00
15670;BME280;18524;45.190;5.732;2023-05-22T00:06:49;98940.22;;;16.44;100.00
15670;BME280;18524;45.190;5.732;2023-05-22T00:11:39;98924.84;;;16.40;100.00
15670;BME280;18524;45.190;5.732;2023-05-22T00:16:30;98922.38;;;16.38;100.00
15670;BME280;18524;45.190;5.732;2023-05-22T00:21:20;98934.59;;;16.31;100.00
15670;BME280;18524;45.190;5.732;2023-05-22T00:26:15;98940.03;;;16.30;100.00
15670;BME280;18524;45.190;5.732;2023-05-22T00:31:06;98938.88;;;16.24;100.00
15670;BME280;18524;45.190;5.732;2023-05-22T00:35:56;98935.25;;;16.17;100.00
15670;BME280;18524;45.190;5.732;2023-05-22T00:40:46;98947.81;;;16.23;100.00
15670;BME280;18524;45.190;5.732;2023-05-22T00:45:37;98948.63;;;16.15;100.00
15670;BME280;18524;45.190;5.732;2023-05-22T00:50:27;98950.13;;;16.18;100.00
15670;BME280;18524;45.190;5.732;2023-05-22T00:55:17;98940.38;;;16.18;100.00
15670;BME280;18524;45.190;5.732;2023-05-22T01:00:09;98948.31;;;16.18;100.00
15670;BME280;18524;45.190;5.732;2023-05-22T01:05:03;98954.44;;;16.19;100.00
15670;BME280;18524;45.190;5.732;2023-05-22T01:09:56;98955.25;;;16.19;100.00
15670;BME280;18524;45.190;5.732;2023-05-22T01:15:02;98958.22;;;16.08;100.00
15670;BME280;18524;45.190;5.732;2023-05-22T01:30:18;98934.41;;;16.08;100.00
15670;BME280;18524;45.190;5.732;2023-05-22T01:35:10;98942.53;;;16.07;100.00
15670;BME280;18524;45.190;5.732;2023-05-22T01:40:05;98930.94;;;16.00;100.00
15670;BME280;18524;45.190;5.732;2023-05-22T01:44:56;98936.19;;;15.91;100.00
15670;BME280;18524;45.190;5.732;2023-05-22T01:49:47;98933.38;;;15.93;100.00
15670;BME280;18524;45.190;5.732;2023-05-22T01:54:42;98923.78;;;15.92;100.00
15670;BME280;18524;45.190;5.732;2023-05-22T01:59:43;98930.56;;;15.86;100.00
15670;BME280;18524;45.190;5.732;2023-05-22T02:04:37;98926.91;;;15.71;100.00
15670;BME280;18524;45.190;5.732;2023-05-22T02:09:29;98931.38;;;15.71;100.00
15670;BME280;18524;45.190;5.732;2023-05-22T02:14:21;98928.22;;;15.75;100.00
15670;BME280;18524;45.190;5.732;2023-05-22T02:19:11;98936.41;;;15.56;100.00
15670;BME280;18524;45.190;5.732;2023-05-22T02:24:02;98930.66;;;15.60;100.00
15670;BME280;18524;45.190;5.732;2023-05-22T02:28:52;98934.06;;;15.53;100.00
15670;BME280;18524;45.190;5.732;2023-05-22T02:33:43;98942.31;;;15.42;100.00
15670;BME280;18524;45.190;5.732;2023-05-22T02:38:34;98943.13;;;15.42;100.00
15670;BME280;18524;45.190;5.732;2023-05-22T02:43:24;98946.41;;;15.36;100.00
15670;BME280;18524;45.190;5.732;2023-05-22T02:48:14;98945.75;;;15.34;100.00
15670;BME280;18524;45.190;5.732;2023-05-22T02:53:05;98950.69;;;15.29;100.00
15670;BME280;18524;45.190;5.732;2023-05-22T02:57:57;98941.13;;;15.36;100.00
15670;BME280;18524;45.190;5.732;2023-05-22T03:02:47;98947.16;;;15.20;100.00
15670;BME280;18524;45.190;5.732;2023-05-22T03:07:38;98945.50;;;15.19;100.00
15670;BME280;18524;45.190;5.732;2023-05-22T03:12:29;98941.66;;;15.14;100.00
15670;BME280;18524;45.190;5.732;2023-05-22T03:17:19;98937.03;;;15.08;100.00
15670;BME280;18524;45.190;5.732;2023-05-22T03:22:09;98927.16;;;15.18;100.00
15670;BME280;18524;45.190;5.732;2023-05-22T03:27:00;98918.53;;;15.08;100.00
15670;BME280;18524;45.190;5.732;2023-05-22T03:31:51;98917.78;;;14.89;100.00
15670;BME280;18524;45.190;5.732;2023-05-22T03:36:41;98933.09;;;14.86;100.00
15670;BME280;18524;45.190;5.732;2023-05-22T03:41:32;98930.16;;;14.89;100.00
15670;BME280;18524;45.190;5.732;2023-05-22T03:46:22;98930.09;;;14.81;100.00
15670;BME280;18524;45.190;5.732;2023-05-22T03:51:13;98927.19;;;14.66;100.00
15670;BME280;18524;45.190;5.732;2023-05-22T03:56:03;98934.03;;;14.77;100.00
15670;BME280;18524;45.190;5.732;2023-05-22T04:00:54;98929.31;;;14.62;100.00
15670;BME280;18524;45.190;5.732;2023-05-22T04:05:45;98942.56;;;14.70;100.00
15670;BME280;18524;45.190;5.732;2023-05-22T04:10:36;98935.00;;;14.50;100.00
15670;BME280;18524;45.190;5.732;2023-05-22T04:15:27;98934.31;;;14.48;100.00
15670;BME280;18524;45.190;5.732;2023-05-22T04:20:18;98950.69;;;14.51;100.00
15670;BME280;18524;45.190;5.732;2023-05-22T04:25:08;98949.09;;;14.58;100.00
15670;BME280;18524;45.190;5.732;2023-05-22T04:29:59;98946.59;;;14.57;100.00
15670;BME280;18524;45.190;5.732;2023-05-22T04:34:51;98949.34;;;14.73;100.00
15670;BME280;18524;45.190;5.732;2023-05-22T04:39:41;98955.81;;;14.79;100.00
15670;BME280;18524;45.190;5.732;2023-05-22T04:44:32;98967.88;;;14.81;100.00
15670;BME280;18524;45.190;5.732;2023-05-22T04:49:23;98958.91;;;14.92;100.00
15670;BME280;18524;45.190;5.732;2023-05-22T04:54:13;98961.00;;;15.14;100.00
15670;BME280;18524;45.190;5.732;2023-05-22T04:59:04;98955.34;;;15.09;100.00
15670;BME280;18524;45.190;5.732;2023-05-22T05:03:57;98958.31;;;15.40;100.00
15670;BME280;18524;45.190;5.732;2023-05-22T05:08:48;98956.22;;;15.52;100.00
15670;BME280;18524;45.190;5.732;2023-05-22T05:13:38;98957.16;;;15.85;100.00
15670;BME280;18524;45.190;5.732;2023-05-22T05:18:29;98960.69;;;16.02;100.00
15670;BME280;18524;45.190;5.732;2023-05-22T05:23:19;98960.06;;;16.48;100.00
15670;BME280;18524;45.190;5.732;2023-05-22T05:28:10;98965.22;;;16.74;100.00
15670;BME280;18524;45.190;5.732;2023-05-22T05:33:00;98958.75;;;16.93;100.00
15670;BME280;18524;45.190;5.732;2023-05-22T05:37:50;98959.53;;;17.10;100.00
15670;BME280;18524;45.190;5.732;2023-05-22T05:42:41;98959.97;;;17.30;100.00
15670;BME280;18524;45.190;5.732;2023-05-22T05:47:31;98965.06;;;17.47;100.00
15670;BME280;18524;45.190;5.732;2023-05-22T05:52:22;98954.69;;;18.00;100.00
15670;BME280;18524;45.190;5.732;2023-05-22T05:57:13;98971.03;;;18.11;100.00
15670;BME280;18524;45.190;5.732;2023-05-22T06:02:04;98972.41;;;18.07;100.00
15670;BME280;18524;45.190;5.732;2023-05-22T06:06:54;98970.81;;;18.44;100.00
15670;BME280;18524;45.190;5.732;2023-05-22T06:11:45;98978.00;;;18.58;100.00
15670;BME280;18524;45.190;5.732;2023-05-22T06:16:35;98978.47;;;18.85;100.00
15670;BME280;18524;45.190;5.732;2023-05-22T06:21:25;98986.31;;;19.16;100.00
15670;BME280;18524;45.190;5.732;2023-05-22T06:26:16;98989.06;;;19.52;100.00
15670;BME280;18524;45.190;5.732;2023-05-22T06:31:07;98993.94;;;19.48;100.00
15670;BME280;18524;45.190;5.732;2023-05-22T06:35:58;98998.81;;;19.59;100.00
15670;BME280;18524;45.190;5.732;2023-05-22T06:40:49;98984.75;;;20.16;100.00
15670;BME280;18524;45.190;5.732;2023-05-22T06:45:39;98973.03;;;20.32;100.00
15670;BME280;18524;45.190;5.732;2023-05-22T06:50:29;98977.03;;;20.85;100.00
15670;BME280;18524;45.190;5.732;2023-05-22T06:55:20;98968.94;;;20.79;100.00
15670;BME280;18524;45.190;5.732;2023-05-22T07:00:11;98965.25;;;21.29;100.00
15670;BME280;18524;45.190;5.732;2023-05-22T07:05:02;98954.94;;;21.61;100.00
15670;BME280;18524;45.190;5.732;2023-05-22T07:09:52;98961.84;;;21.96;100.00
15670;BME280;18524;45.190;5.732;2023-05-22T07:14:43;98957.00;;;22.26;99.27
15670;BME280;18524;45.190;5.732;2023-05-22T07:19:33;98957.88;;;22.73;96.85
15670;BME280;18524;45.190;5.732;2023-05-22T07:24:24;98959.88;;;23.24;94.37
15670;BME280;18524;45.190;5.732;2023-05-22T07:29:15;98952.50;;;22.66;96.04
15670;BME280;18524;45.190;5.732;2023-05-22T07:34:05;98955.31;;;23.44;93.25
15670;BME280;18524;45.190;5.732;2023-05-22T07:38:56;98958.47;;;23.15;92.82
15670;BME280;18524;45.190;5.732;2023-05-22T07:43:46;98955.81;;;23.08;92.25
15670;BME280;18524;45.190;5.732;2023-05-22T07:48:37;98947.94;;;23.26;92.51
15670;BME280;18524;45.190;5.732;2023-05-22T07:53:27;98953.47;;;23.96;85.66
15670;BME280;18524;45.190;5.732;2023-05-22T07:58:17;98947.19;;;24.47;84.48
15670;BME280;18524;45.190;5.732;2023-05-22T08:03:08;98948.84;;;24.73;81.36
15670;BME280;18524;45.190;5.732;2023-05-22T08:07:59;98940.56;;;24.74;81.71
15670;BME280;18524;45.190;5.732;2023-05-22T08:12:49;98940.53;;;25.06;78.53
15670;BME280;18524;45.190;5.732;2023-05-22T08:17:40;98937.84;;;25.24;77.48
15670;BME280;18524;45.190;5.732;2023-05-22T08:22:30;98936.72;;;25.50;75.31
15670;BME280;18524;45.190;5.732;2023-05-22T08:27:21;98929.88;;;25.72;75.72
15670;BME280;18524;45.190;5.732;2023-05-22T08:32:11;98920.63;;;25.98;73.61
15670;BME280;18524;45.190;5.732;2023-05-22T08:37:02;98911.16;;;26.37;71.53
15670;BME280;18524;45.190;5.732;2023-05-22T08:41:55;98909.34;;;26.61;70.68
15670;BME280;18524;45.190;5.732;2023-05-22T08:46:45;98915.91;;;27.12;69.89
15670;BME280;18524;45.190;5.732;2023-05-22T08:51:41;98911.69;;;27.28;67.71
15670;BME280;18524;45.190;5.732;2023-05-22T08:56:31;98907.94;;;27.29;66.17
15670;BME280;18524;45.190;5.732;2023-05-22T09:01:22;98905.69;;;27.37;66.28
15670;BME280;18524;45.190;5.732;2023-05-22T09:06:12;98908.69;;;27.64;64.31
15670;BME280;18524;45.190;5.732;2023-05-22T09:11:03;98911.97;;;27.95;62.93
15670;BME280;18524;45.190;5.732;2023-05-22T09:16:14;98902.31;;;28.44;60.90
15670;BME280;18524;45.190;5.732;2023-05-22T09:21:08;98897.56;;;28.51;59.16
15670;BME280;18524;45.190;5.732;2023-05-22T09:26:01;98896.34;;;28.76;58.77
15670;BME280;18524;45.190;5.732;2023-05-22T09:30:53;98885.97;;;28.84;58.58
15670;BME280;18524;45.190;5.732;2023-05-22T09:35:47;98884.69;;;29.09;56.96
15670;BME280;18524;45.190;5.732;2023-05-22T09:40:39;98876.41;;;29.15;56.89
15670;BME280;18524;45.190;5.732;2023-05-22T09:45:33;98860.44;;;29.14;55.02
15670;BME280;18524;45.190;5.732;2023-05-22T09:50:24;98868.31;;;29.59;53.73
15670;BME280;18524;45.190;5.732;2023-05-22T09:55:15;98860.22;;;29.86;52.92
15670;BME280;18524;45.190;5.732;2023-05-22T10:00:07;98859.22;;;29.70;53.43
15670;BME280;18524;45.190;5.732;2023-05-22T10:05:04;98852.56;;;29.78;51.70
15670;BME280;18524;45.190;5.732;2023-05-22T10:10:01;98857.22;;;29.61;52.03
15670;BME280;18524;45.190;5.732;2023-05-22T10:14:53;98851.88;;;29.93;52.58
15670;BME280;18524;45.190;5.732;2023-05-22T10:19:45;98843.81;;;30.25;50.55
15670;BME280;18524;45.190;5.732;2023-05-22T10:24:36;98846.44;;;30.52;50.54
15670;BME280;18524;45.190;5.732;2023-05-22T10:29:34;98837.19;;;30.47;51.18
15670;BME280;18524;45.190;5.732;2023-05-22T10:39:51;98831.75;;;30.79;50.92
15670;BME280;18524;45.190;5.732;2023-05-22T10:44:47;98825.66;;;31.15;50.74
15670;BME280;18524;45.190;5.732;2023-05-22T10:49:42;98823.22;;;31.13;50.66
15670;BME280;18524;45.190;5.732;2023-05-22T10:54:44;98823.66;;;31.52;49.55
15670;BME280;18524;45.190;5.732;2023-05-22T10:59:34;98813.63;;;31.48;48.72
15670;BME280;18524;45.190;5.732;2023-05-22T11:04:25;98806.84;;;31.50;50.20
15670;BME280;18524;45.190;5.732;2023-05-22T11:14:25;98798.25;;;32.04;49.41
15670;BME280;18524;45.190;5.732;2023-05-22T11:19:16;98780.34;;;32.03;49.06
15670;BME280;18524;45.190;5.732;2023-05-22T11:24:06;98780.63;;;32.07;48.11
15670;BME280;18524;45.190;5.732;2023-05-22T11:28:58;98779.81;;;32.26;47.96
15670;BME280;18524;45.190;5.732;2023-05-22T11:33:49;98771.13;;;32.35;47.70
15670;BME280;18524;45.190;5.732;2023-05-22T11:38:40;98756.97;;;32.48;46.82
15670;BME280;18524;45.190;5.732;2023-05-22T11:43:31;98758.06;;;32.47;46.83
15670;BME280;18524;45.190;5.732;2023-05-22T11:48:23;98747.75;;;32.33;46.99
15670;BME280;18524;45.190;5.732;2023-05-22T11:53:13;98738.94;;;32.82;46.10
15670;BME280;18524;45.190;5.732;2023-05-22T11:58:04;98742.91;;;33.05;42.39
15670;BME280;18524;45.190;5.732;2023-05-22T12:02:54;98727.75;;;33.43;41.87
15670;BME280;18524;45.190;5.732;2023-05-22T12:07:45;98718.53;;;33.39;41.50
15670;BME280;18524;45.190;5.732;2023-05-22T12:12:36;98719.97;;;33.66;39.86
15670;BME280;18524;45.190;5.732;2023-05-22T12:17:27;98714.88;;;33.15;40.74
15670;BME280;18524;45.190;5.732;2023-05-22T12:22:18;98733.81;;;33.69;40.79
15670;BME280;18524;45.190;5.732;2023-05-22T12:27:09;98722.31;;;33.77;39.32
15670;BME280;18524;45.190;5.732;2023-05-22T12:32:01;98720.97;;;32.91;40.64
15670;BME280;18524;45.190;5.732;2023-05-22T12:36:52;98714.13;;;31.94;43.25
15670;BME280;18524;45.190;5.732;2023-05-22T12:41:44;98703.00;;;31.55;43.17
15670;BME280;18524;45.190;5.732;2023-05-22T12:46:34;98704.63;;;31.40;44.77
15670;BME280;18524;45.190;5.732;2023-05-22T12:51:26;98697.00;;;32.19;40.62
15670;BME280;18524;45.190;5.732;2023-05-22T12:56:18;98686.81;;;32.65;42.35
15670;BME280;18524;45.190;5.732;2023-05-22T13:01:09;98680.09;;;33.07;41.72
15670;BME280;18524;45.190;5.732;2023-05-22T13:05:59;98666.91;;;33.29;41.33
15670;BME280;18524;45.190;5.732;2023-05-22T13:10:49;98649.88;;;33.18;40.30
15670;BME280;18524;45.190;5.732;2023-05-22T13:15:41;98662.13;;;32.61;41.17
15670;BME280;18524;45.190;5.732;2023-05-22T13:20:32;98657.06;;;32.45;42.30
15670;BME280;18524;45.190;5.732;2023-05-22T13:25:25;98638.19;;;32.69;42.50
15670;BME280;18524;45.190;5.732;2023-05-22T13:30:15;98632.31;;;33.01;40.97
15670;BME280;18524;45.190;5.732;2023-05-22T13:35:05;98632.00;;;33.07;41.50
15670;BME280;18524;45.190;5.732;2023-05-22T13:39:56;98637.59;;;32.87;41.32
15670;BME280;18524;45.190;5.732;2023-05-22T13:44:46;98615.13;;;32.71;42.34
15670;BME280;18524;45.190;5.732;2023-05-22T13:49:37;98619.63;;;32.37;41.10
15670;BME280;18524;45.190;5.732;2023-05-22T13:54:27;98617.81;;;31.96;42.05
15670;BME280;18524;45.190;5.732;2023-05-22T13:59:17;98611.88;;;31.94;42.29
15670;BME280;18524;45.190;5.732;2023-05-22T14:04:08;98617.91;;;31.61;44.22
15670;BME280;18524;45.190;5.732;2023-05-22T14:08:58;98609.75;;;31.40;44.83
15670;BME280;18524;45.190;5.732;2023-05-22T14:13:49;98609.50;;;31.37;43.85
15670;BME280;18524;45.190;5.732;2023-05-22T14:18:41;98598.91;;;31.40;44.05
15670;BME280;18524;45.190;5.732;2023-05-22T14:23:31;98606.25;;;31.25;44.28
15670;BME280;18524;45.190;5.732;2023-05-22T14:28:21;98605.38;;;31.04;45.51
15670;BME280;18524;45.190;5.732;2023-05-22T14:33:12;98594.56;;;30.94;44.76
15670;BME280;18524;45.190;5.732;2023-05-22T14:38:02;98594.22;;;30.70;46.54
15670;BME280;18524;45.190;5.732;2023-05-22T14:42:53;98591.13;;;30.41;45.56
15670;BME280;18524;45.190;5.732;2023-05-22T14:47:43;98589.63;;;30.03;46.36
15670;BME280;18524;45.190;5.732;2023-05-22T14:52:34;98582.88;;;29.58;48.06
15670;BME280;18524;45.190;5.732;2023-05-22T14:57:24;98585.44;;;29.43;48.78
15670;BME280;18524;45.190;5.732;2023-05-22T15:02:14;98587.13;;;29.17;49.27
15670;BME280;18524;45.190;5.732;2023-05-22T15:07:05;98587.28;;;28.78;50.87
15670;BME280;18524;45.190;5.732;2023-05-22T15:11:55;98578.28;;;28.68;51.41
15670;BME280;18524;45.190;5.732;2023-05-22T15:16:45;98586.56;;;28.61;51.76
15670;BME280;18524;45.190;5.732;2023-05-22T15:21:36;98582.38;;;28.48;51.69
15670;BME280;18524;45.190;5.732;2023-05-22T15:26:26;98582.31;;;28.21;51.97
15670;BME280;18524;45.190;5.732;2023-05-22T15:31:17;98563.94;;;28.18;53.60
15670;BME280;18524;45.190;5.732;2023-05-22T15:36:08;98559.34;;;28.19;52.70
15670;BME280;18524;45.190;5.732;2023-05-22T15:40:59;98562.19;;;28.07;52.28
15670;BME280;18524;45.190;5.732;2023-05-22T15:45:49;98570.72;;;27.99;52.08
15670;BME280;18524;45.190;5.732;2023-05-22T15:50:40;98569.28;;;27.91;52.20
15670;BME280;18524;45.190;5.732;2023-05-22T15:55:30;98575.63;;;27.85;52.58
15670;BME280;18524;45.190;5.732;2023-05-22T16:00:22;98588.75;;;27.60;53.57
15670;BME280;18524;45.190;5.732;2023-05-22T16:05:13;98572.34;;;27.45;53.26
15670;BME280;18524;45.190;5.732;2023-05-22T16:10:03;98579.53;;;27.05;54.49
15670;BME280;18524;45.190;5.732;2023-05-22T16:14:54;98679.75;;;25.62;100.00
15670;BME280;18524;45.190;5.732;2023-05-22T16:19:45;98646.72;;;24.30;100.00
15670;BME280;18524;45.190;5.732;2023-05-22T16:24:35;98661.25;;;23.73;100.00
15670;BME280;18524;45.190;5.732;2023-05-22T16:29:25;98665.38;;;23.19;100.00
15670;BME280;18524;45.190;5.732;2023-05-22T16:34:16;98655.06;;;22.91;100.00
15670;BME280;18524;45.190;5.732;2023-05-22T16:39:07;98648.75;;;22.72;100.00
15670;BME280;18524;45.190;5.732;2023-05-22T16:43:57;98661.31;;;22.65;100.00
15670;BME280;18524;45.190;5.732;2023-05-22T16:48:48;98674.94;;;22.57;100.00
15670;BME280;18524;45.190;5.732;2023-05-22T16:53:39;98679.44;;;22.56;100.00
15670;BME280;18524;45.190;5.732;2023-05-22T16:58:30;98674.13;;;22.50;100.00
15670;BME280;18524;45.190;5.732;2023-05-22T17:03:21;98652.97;;;22.48;100.00
15670;BME280;18524;45.190;5.732;2023-05-22T17:08:12;98655.44;;;22.50;100.00
15670;BME280;18524;45.190;5.732;2023-05-22T17:13:02;98665.50;;;22.48;100.00
15670;BME280;18524;45.190;5.732;2023-05-22T17:17:52;98678.44;;;22.51;100.00
15670;BME280;18524;45.190;5.732;2023-05-22T17:22:43;98674.75;;;22.52;100.00
15670;BME280;18524;45.190;5.732;2023-05-22T17:27:33;98677.38;;;22.58;100.00
15670;BME280;18524;45.190;5.732;2023-05-22T17:32:24;98685.44;;;22.52;100.00
15670;BME280;18524;45.190;5.732;2023-05-22T17:37:15;98686.50;;;22.44;100.00
15670;BME280;18524;45.190;5.732;2023-05-22T17:42:05;98686.69;;;22.49;100.00
15670;BME280;18524;45.190;5.732;2023-05-22T17:46:56;98692.63;;;22.51;100.00
15670;BME280;18524;45.190;5.732;2023-05-22T17:51:47;98696.94;;;22.52;100.00
15670;BME280;18524;45.190;5.732;2023-05-22T17:56:38;98714.63;;;22.53;100.00
15670;BME280;18524;45.190;5.732;2023-05-22T18:01:28;98720.22;;;22.45;100.00
15670;BME280;18524;45.190;5.732;2023-05-22T18:06:20;98719.19;;;22.39;100.00
15670;BME280;18524;45.190;5.732;2023-05-22T18:11:11;98723.94;;;22.37;100.00
15670;BME280;18524;45.190;5.732;2023-05-22T18:16:01;98731.34;;;22.35;100.00
15670;BME280;18524;45.190;5.732;2023-05-22T18:20:52;98724.94;;;22.30;100.00
15670;BME280;18524;45.190;5.732;2023-05-22T18:25:43;98724.78;;;22.31;100.00
15670;BME280;18524;45.190;5.732;2023-05-22T18:30:33;98731.75;;;22.26;100.00
15670;BME280;18524;45.190;5.732;2023-05-22T18:35:24;98738.13;;;22.31;100.00
15670;BME280;18524;45.190;5.732;2023-05-22T18:40:14;98748.19;;;22.23;100.00
15670;BME280;18524;45.190;5.732;2023-05-22T18:45:05;98759.09;;;22.14;100.00
15670;BME280;18524;45.190;5.732;2023-05-22T18:49:56;98767.09;;;22.01;100.00
15670;BME280;18524;45.190;5.732;2023-05-22T18:54:46;98782.50;;;21.93;100.00
15670;BME280;18524;45.190;5.732;2023-05-22T18:59:37;98791.13;;;21.81;100.00
15670;BME280;18524;45.190;5.732;2023-05-22T19:04:27;98792.34;;;21.79;100.00
15670;BME280;18524;45.190;5.732;2023-05-22T19:09:18;98801.59;;;21.63;100.00
15670;BME280;18524;45.190;5.732;2023-05-22T19:14:09;98812.25;;;21.57;100.00
15670;BME280;18524;45.190;5.732;2023-05-22T19:18:59;98840.94;;;21.48;100.00
15670;BME280;18524;45.190;5.732;2023-05-22T19:23:50;98860.44;;;21.42;100.00
15670;BME280;18524;45.190;5.732;2023-05-22T19:28:40;98865.75;;;21.35;100.00
15670;BME280;18524;45.190;5.732;2023-05-22T19:33:30;98875.78;;;21.27;100.00
15670;BME280;18524;45.190;5.732;2023-05-22T19:38:21;98884.91;;;21.17;100.00
15670;BME280;18524;45.190;5.732;2023-05-22T19:43:12;98887.75;;;21.16;100.00
15670;BME280;18524;45.190;5.732;2023-05-22T19:48:02;98899.66;;;21.13;100.00
15670;BME280;18524;45.190;5.732;2023-05-22T19:52:53;98900.06;;;21.10;100.00
15670;BME280;18524;45.190;5.732;2023-05-22T19:57:44;98908.44;;;21.07;100.00
15670;BME280;18524;45.190;5.732;2023-05-22T20:02:34;98923.81;;;21.05;100.00
15670;BME280;18524;45.190;5.732;2023-05-22T20:07:25;98934.31;;;21.13;100.00
15670;BME280;18524;45.190;5.732;2023-05-22T20:12:15;98953.28;;;20.90;100.00
15670;BME280;18524;45.190;5.732;2023-05-22T20:17:06;98958.28;;;20.79;100.00
15670;BME280;18524;45.190;5.732;2023-05-22T20:21:56;98973.59;;;20.70;100.00
15670;BME280;18524;45.190;5.732;2023-05-22T20:26:47;98971.28;;;20.60;100.00
15670;BME280;18524;45.190;5.732;2023-05-22T20:31:38;98976.75;;;20.52;100.00
15670;BME280;18524;45.190;5.732;2023-05-22T20:36:28;98975.19;;;20.43;100.00
15670;BME280;18524;45.190;5.732;2023-05-22T20:41:19;98975.13;;;20.37;100.00
15670;BME280;18524;45.190;5.732;2023-05-22T20:46:11;98976.91;;;20.29;100.00
15670;BME280;18524;45.190;5.732;2023-05-22T20:51:02;98970.16;;;20.34;100.00
15670;BME280;18524;45.190;5.732;2023-05-22T20:55:53;98972.34;;;20.23;100.00
15670;BME280;18524;45.190;5.732;2023-05-22T21:00:43;98977.78;;;20.15;100.00
15670;BME280;18524;45.190;5.732;2023-05-22T21:05:34;98973.66;;;20.13;100.00
15670;BME280;18524;45.190;5.732;2023-05-22T21:10:25;98970.06;;;20.06;100.00
15670;BME280;18524;45.190;5.732;2023-05-22T21:15:16;98976.97;;;20.00;100.00
15670;BME280;18524;45.190;5.732;2023-05-22T21:20:06;98995.53;;;19.93;100.00
15670;BME280;18524;45.190;5.732;2023-05-22T21:24:57;98984.00;;;19.86;100.00
15670;BME280;18524;45.190;5.732;2023-05-22T21:29:47;98981.09;;;19.81;100.00
15670;BME280;18524;45.190;5.732;2023-05-22T21:34:37;98987.16;;;19.75;100.00
15670;BME280;18524;45.190;5.732;2023-05-22T21:39:28;98992.03;;;19.72;100.00
15670;BME280;18524;45.190;5.732;2023-05-22T21:44:18;99000.91;;;19.64;100.00
15670;BME280;18524;45.190;5.732;2023-05-22T21:49:08;99013.38;;;19.63;100.00
15670;BME280;18524;45.190;5.732;2023-05-22T21:53:59;99013.94;;;19.59;100.00
15670;BME280;18524;45.190;5.732;2023-05-22T21:58:49;99024.47;;;19.52;100.00
15670;BME280;18524;45.190;5.732;2023-05-22T22:03:40;99031.53;;;19.45;100.00
15670;BME280;18524;45.190;5.732;2023-05-22T22:08:30;99038.69;;;19.45;100.00
15670;BME280;18524;45.190;5.732;2023-05-22T22:13:20;99044.56;;;19.40;100.00
15670;BME280;18524;45.190;5.732;2023-05-22T22:18:11;99055.75;;;19.50;100.00
15670;BME280;18524;45.190;5.732;2023-05-22T22:23:04;99070.06;;;19.49;100.00
15670;BME280;18524;45.190;5.732;2023-05-22T22:27:54;99071.38;;;19.53;100.00
15670;BME280;18524;45.190;5.732;2023-05-22T22:32:44;99078.53;;;19.53;100.00
15670;BME280;18524;45.190;5.732;2023-05-22T22:37:35;99078.41;;;19.46;100.00
15670;BME280;18524;45.190;5.732;2023-05-22T22:42:26;99082.63;;;19.41;100.00
15670;BME280;18524;45.190;5.732;2023-05-22T22:47:17;99076.19;;;19.35;100.00
15670;BME280;18524;45.190;5.732;2023-05-22T22:52:07;99077.22;;;19.34;100.00
15670;BME280;18524;45.190;5.732;2023-05-22T22:56:57;99074.88;;;19.31;100.00
15670;BME280;18524;45.190;5.732;2023-05-22T23:01:48;99070.75;;;19.28;100.00
15670;BME280;18524;45.190;5.732;2023-05-22T23:06:38;99068.56;;;19.32;100.00
15670;BME280;18524;45.190;5.732;2023-05-22T23:11:30;99070.88;;;19.35;100.00
15670;BME280;18524;45.190;5.732;2023-05-22T23:16:26;99060.03;;;19.22;100.00
15670;BME280;18524;45.190;5.732;2023-05-22T23:21:16;99055.72;;;19.21;100.00
15670;BME280;18524;45.190;5.732;2023-05-22T23:26:07;99049.28;;;19.15;100.00
15670;BME280;18524;45.190;5.732;2023-05-22T23:30:57;99054.13;;;19.12;100.00
15670;BME280;18524;45.190;5.732;2023-05-22T23:35:48;99056.25;;;19.16;100.00
15670;BME280;18524;45.190;5.732;2023-05-22T23:40:38;99056.06;;;19.18;100.00
15670;BME280;18524;45.190;5.732;2023-05-22T23:45:28;99061.56;;;19.16;100.00
15670;BME280;18524;45.190;5.732;2023-05-22T23:50:19;99065.25;;;19.15;100.00
15670;BME280;18524;45.190;5.732;2023-05-22T23:55:09;99063.84;;;19.04;100.00
15670;BME280;18524;45.190;5.732;2023-05-22T23:59:59;99062.84;;;19.05;100.00
